createdAt,value
2018-04-16T00:00:29.666Z,45.26
2018-04-16T00:02:57.684Z,45.43
2018-04-16T00:05:25.617Z,45.86
2018-04-16T00:07:53.642Z,46.60
2018-04-16T00:10:21.648Z,46.13
2018-04-16T00:12:49.662Z,45.97
2018-04-16T00:15:17.718Z,45.16
2018-04-16T00:17:45.727Z,45.74
2018-04-16T00:20:13.701Z,45.25
2018-04-16T00:22:41.685Z,45.15
2018-04-16T00:25:09.664Z,44.60
2018-04-16T00:27:37.755Z,45.20
2018-04-16T00:30:05.797Z,45.20
2018-04-16T00:35:45.453Z,45.31
2018-04-16T00:38:19.063Z,44.92
2018-04-16T00:40:52.606Z,45.18
2018-04-16T00:43:26.149Z,45.09
2018-04-16T00:45:59.632Z,45.17
2018-04-16T00:48:32.929Z,45.65
2018-04-16T00:51:06.379Z,46.37
2018-04-16T00:56:57.750Z,46.14
2018-04-16T00:59:31.302Z,45.62
2018-04-16T01:02:04.977Z,45.48
2018-04-16T01:04:39.513Z,45.52
2018-04-16T01:07:13.106Z,46.39
2018-04-16T01:09:46.607Z,45.78
2018-04-16T01:12:20.136Z,46.04
2018-04-16T01:14:53.790Z,46.58
2018-04-16T01:17:27.305Z,46.50
2018-04-16T01:20:00.831Z,46.67
2018-04-16T01:22:34.551Z,48.75
2018-04-16T01:25:08.863Z,47.94
2018-04-16T01:27:42.413Z,47.64
2018-04-16T01:30:15.879Z,47.59
2018-04-16T01:32:49.713Z,48.53
2018-04-16T01:35:24.012Z,46.09
2018-04-16T01:37:57.543Z,47.69
2018-04-16T01:40:31.225Z,46.94
2018-04-16T01:43:04.822Z,46.28
2018-04-16T01:45:39.090Z,45.86
2018-04-16T01:48:12.588Z,45.34
2018-04-16T01:50:46.278Z,45.49
2018-04-16T01:53:19.813Z,45.92
2018-04-16T01:55:54.344Z,46.37
2018-04-16T01:58:28.024Z,46.89
2018-04-16T02:01:01.699Z,48.06
2018-04-16T02:03:35.385Z,47.47
2018-04-16T02:06:09.698Z,46.65
2018-04-16T02:08:43.297Z,46.05
2018-04-16T02:11:17.109Z,45.46
2018-04-16T02:13:50.796Z,45.18
2018-04-16T02:16:24.234Z,46.52
2018-04-16T02:18:57.649Z,46.11
2018-04-16T02:21:31.220Z,45.81
2018-04-16T02:24:04.909Z,46.89
2018-04-16T02:26:39.117Z,46.12
2018-04-16T02:29:12.638Z,45.79
2018-04-16T02:31:46.344Z,46.06
2018-04-16T02:34:20.027Z,48.67
2018-04-16T02:36:53.718Z,50.13
2018-04-16T02:39:27.414Z,50.22
2018-04-16T02:42:01.106Z,49.18
2018-04-16T02:44:34.565Z,50.54
2018-04-16T02:47:08.297Z,50.94
2018-04-16T02:49:41.945Z,52.92
2018-04-16T02:55:25.562Z,55.14
2018-04-16T02:57:59.161Z,55.36
2018-04-16T03:00:32.593Z,53.21
2018-04-16T03:03:07.030Z,52.41
2018-04-16T03:05:40.807Z,52.15
2018-04-16T03:08:14.475Z,53.28
2018-04-16T03:10:48.006Z,52.02
2018-04-16T03:13:22.432Z,51.77
2018-04-16T03:15:55.950Z,52.25
2018-04-16T03:18:29.396Z,51.14
2018-04-16T03:21:03.017Z,50.88
2018-04-16T03:23:37.609Z,51.67
2018-04-16T03:26:11.115Z,52.94
2018-04-16T03:28:44.720Z,55.91
2018-04-16T03:31:18.353Z,55.95
2018-04-16T03:33:52.898Z,57.82
2018-04-16T03:39:35.373Z,54.69
2018-04-16T03:42:08.843Z,54.25
2018-04-16T03:44:42.298Z,54.12
2018-04-16T03:47:16.069Z,53.09
2018-04-16T03:49:49.496Z,54.23
2018-04-16T03:52:22.973Z,56.72
2018-04-16T03:55:01.874Z,54.71
2018-04-16T03:57:29.837Z,53.87
2018-04-16T03:59:57.852Z,53.69
2018-04-16T04:02:25.805Z,54.40
2018-04-16T04:04:53.790Z,53.33
2018-04-16T04:07:22.292Z,52.92
2018-04-16T04:09:50.217Z,54.26
2018-04-16T04:12:18.216Z,54.09
2018-04-16T04:14:46.254Z,53.48
2018-04-16T04:17:14.290Z,52.71
2018-04-16T04:19:42.220Z,51.48
2018-04-16T04:22:10.201Z,53.50
2018-04-16T04:24:49.950Z,52.58
2018-04-16T04:27:29.653Z,51.83
2018-04-16T04:30:09.333Z,54.60
2018-04-16T04:32:37.276Z,55.39
2018-04-16T04:35:05.261Z,54.83
2018-04-16T04:37:33.250Z,54.48
2018-04-16T04:40:01.335Z,54.36
2018-04-16T04:42:29.325Z,51.12
2018-04-16T04:44:57.333Z,55.40
2018-04-16T04:47:25.294Z,51.92
2018-04-16T04:49:53.272Z,50.46
2018-04-16T04:52:21.213Z,52.51
2018-04-16T04:54:49.162Z,51.46
2018-04-16T04:57:17.162Z,49.28
2018-04-16T04:59:45.188Z,49.58
2018-04-16T05:02:13.157Z,51.10
2018-04-16T05:04:41.152Z,54.29
2018-04-16T05:07:09.209Z,54.85
2018-04-16T05:09:37.590Z,56.42
2018-04-16T05:12:05.535Z,55.22
2018-04-16T05:14:33.535Z,54.13
2018-04-16T05:17:01.537Z,55.77
2018-04-16T05:19:29.589Z,55.88
2018-04-16T05:21:57.533Z,55.86
2018-04-16T05:24:25.551Z,56.30
2018-04-16T05:26:53.538Z,56.27
2018-04-16T05:29:21.508Z,55.08
2018-04-16T05:31:49.497Z,56.28
2018-04-16T05:34:17.507Z,58.38
2018-04-16T05:36:45.525Z,58.84
2018-04-16T05:39:13.513Z,58.83
2018-04-16T05:41:41.554Z,57.60
2018-04-16T05:44:09.646Z,54.57
2018-04-16T05:46:37.639Z,54.33
2018-04-16T05:49:05.661Z,54.19
2018-04-16T05:51:33.625Z,53.14
2018-04-16T05:54:01.652Z,53.84
2018-04-16T05:56:29.602Z,60.44
2018-04-16T05:58:57.556Z,56.03
2018-04-16T06:01:25.565Z,57.99
2018-04-16T06:03:53.594Z,57.84
2018-04-16T06:06:21.557Z,56.03
2018-04-16T06:08:49.590Z,56.44
2018-04-16T06:11:17.923Z,58.06
2018-04-16T06:13:45.940Z,58.36
2018-04-16T06:16:14.005Z,55.35
2018-04-16T06:18:42.029Z,58.30
2018-04-16T06:21:10.035Z,55.07
2018-04-16T06:23:38.049Z,53.77
2018-04-16T06:26:06.146Z,54.05
2018-04-16T06:28:34.170Z,55.04
2018-04-16T06:31:02.234Z,55.30
2018-04-16T06:33:30.207Z,54.41
2018-04-16T06:35:58.241Z,52.10
2018-04-16T06:38:26.272Z,52.17
2018-04-16T06:40:54.267Z,54.48
2018-04-16T06:43:22.269Z,52.49
2018-04-16T06:45:50.194Z,50.66
2018-04-16T06:48:18.164Z,50.02
2018-04-16T06:50:46.162Z,49.59
2018-04-16T06:53:14.310Z,49.73
2018-04-16T06:55:42.355Z,50.10
2018-04-16T06:58:10.367Z,48.74
2018-04-16T07:00:38.393Z,49.93
2018-04-16T07:03:06.412Z,49.01
2018-04-16T07:05:34.405Z,51.44
2018-04-16T07:08:02.419Z,53.66
2018-04-16T07:10:30.409Z,53.48
2018-04-16T07:12:58.874Z,54.23
2018-04-16T07:15:26.832Z,52.84
2018-04-16T07:17:54.929Z,55.21
2018-04-16T07:20:22.961Z,54.22
2018-04-16T07:22:50.983Z,56.25
2018-04-16T07:25:18.971Z,56.02
2018-04-16T07:27:46.992Z,56.49
2018-04-16T07:30:14.998Z,54.54
2018-04-16T07:32:42.951Z,54.76
2018-04-16T07:35:10.932Z,54.88
2018-04-16T07:37:38.953Z,56.57
2018-04-16T07:40:06.991Z,53.33
2018-04-16T07:42:34.977Z,52.94
2018-04-16T07:45:03.067Z,52.21
2018-04-16T07:47:31.073Z,51.50
2018-04-16T07:49:59.033Z,53.36
2018-04-16T07:52:27.037Z,49.16
2018-04-16T07:54:55.078Z,47.81
2018-04-16T07:57:23.020Z,51.07
2018-04-16T07:59:51.026Z,50.92
2018-04-16T08:02:18.958Z,48.32
2018-04-16T08:04:46.948Z,46.49
2018-04-16T08:07:14.981Z,42.14
2018-04-16T08:09:42.949Z,42.21
2018-04-16T08:12:11.103Z,41.42
2018-04-16T08:14:39.520Z,41.38
2018-04-16T08:17:07.478Z,39.09
2018-04-16T08:19:35.482Z,37.70
2018-04-16T08:22:03.475Z,36.97
2018-04-16T08:24:31.495Z,37.40
2018-04-16T08:26:59.512Z,38.69
2018-04-16T08:29:27.597Z,38.18
2018-04-16T08:31:55.748Z,38.35
2018-04-16T08:34:23.719Z,39.41
2018-04-16T08:36:51.755Z,40.83
2018-04-16T08:39:19.780Z,42.04
2018-04-16T08:41:47.785Z,41.71
2018-04-16T08:44:15.823Z,41.13
2018-04-16T08:46:43.846Z,41.06
2018-04-16T08:49:11.781Z,40.16
2018-04-16T08:51:39.803Z,40.38
2018-04-16T08:54:07.750Z,41.54
2018-04-16T08:56:35.810Z,41.96
2018-04-16T08:59:03.797Z,41.71
2018-04-16T09:01:31.743Z,40.50
2018-04-16T09:03:59.693Z,39.57
2018-04-16T09:06:27.708Z,40.32
2018-04-16T09:08:55.715Z,38.15
2018-04-16T09:11:23.669Z,38.41
2018-04-16T09:13:51.846Z,38.26
2018-04-16T09:16:20.355Z,39.41
2018-04-16T09:18:48.393Z,38.95
2018-04-16T09:21:16.405Z,38.90
2018-04-16T09:23:44.359Z,40.10
2018-04-16T09:26:12.315Z,40.15
2018-04-16T09:28:40.357Z,40.73
2018-04-16T09:31:08.381Z,40.33
2018-04-16T09:33:36.424Z,39.39
2018-04-16T09:36:04.379Z,38.88
2018-04-16T09:38:32.495Z,39.49
2018-04-16T09:41:00.539Z,40.30
2018-04-16T09:43:28.621Z,40.92
2018-04-16T09:45:56.643Z,40.01
2018-04-16T09:48:24.670Z,41.18
2018-04-16T09:50:52.713Z,41.08
2018-04-16T09:53:20.695Z,40.61
2018-04-16T09:55:48.643Z,40.36
2018-04-16T09:58:16.602Z,42.65
2018-04-16T10:00:50.210Z,41.97
2018-04-16T10:03:18.246Z,42.11
2018-04-16T10:05:46.338Z,41.16
2018-04-16T10:08:14.322Z,40.65
2018-04-16T10:10:42.350Z,42.42
2018-04-16T10:13:10.478Z,42.14
2018-04-16T10:15:38.516Z,42.54
2018-04-16T10:18:06.840Z,41.86
2018-04-16T10:20:34.803Z,44.84
2018-04-16T10:23:02.811Z,43.45
2018-04-16T10:25:30.850Z,42.72
2018-04-16T10:27:58.850Z,40.70
2018-04-16T10:30:26.905Z,41.63
2018-04-16T10:32:54.943Z,40.04
2018-04-16T10:35:22.998Z,42.41
2018-04-16T10:37:50.999Z,40.47
2018-04-16T10:40:19.031Z,42.10
2018-04-16T10:42:47.038Z,41.42
2018-04-16T10:45:15.113Z,41.33
2018-04-16T10:47:43.065Z,38.46
2018-04-16T10:50:11.145Z,38.60
2018-04-16T10:52:39.148Z,39.78
2018-04-16T10:55:07.165Z,35.02
2018-04-16T10:57:35.206Z,35.08
2018-04-16T11:00:03.343Z,36.77
2018-04-16T11:02:31.340Z,36.23
2018-04-16T11:04:59.374Z,33.25
2018-04-16T11:07:27.380Z,33.35
2018-04-16T11:09:55.414Z,31.93
2018-04-16T11:12:23.419Z,27.69
2018-04-16T11:14:51.367Z,29.23
2018-04-16T11:17:19.360Z,31.23
2018-04-16T11:19:48.103Z,32.88
2018-04-16T11:22:16.073Z,29.67
2018-04-16T11:24:44.102Z,28.44
2018-04-16T11:27:12.076Z,29.88
2018-04-16T11:29:40.143Z,28.33
2018-04-16T11:32:08.145Z,32.17
2018-04-16T11:34:36.136Z,29.65
2018-04-16T11:37:04.113Z,29.04
2018-04-16T11:39:32.209Z,32.93
2018-04-16T11:42:00.356Z,28.99
2018-04-16T11:44:28.355Z,28.51
2018-04-16T11:46:56.389Z,27.87
2018-04-16T11:49:24.405Z,28.87
2018-04-16T11:51:52.489Z,25.75
2018-04-16T11:54:20.427Z,24.43
2018-04-16T11:56:48.476Z,27.60
2018-04-16T11:59:16.438Z,23.45
2018-04-16T12:01:44.455Z,25.80
2018-04-16T12:04:12.489Z,26.65
2018-04-16T12:06:40.523Z,24.98
2018-04-16T12:09:08.556Z,28.75
2018-04-16T12:11:36.782Z,26.60
2018-04-16T12:14:04.776Z,21.37
2018-04-16T12:16:32.861Z,24.63
2018-04-16T12:19:00.916Z,23.04
2018-04-16T12:21:28.981Z,24.19
2018-04-16T12:23:57.062Z,22.62
2018-04-16T12:26:24.995Z,25.34
2018-04-16T12:28:53.011Z,23.97
2018-04-16T12:31:21.069Z,24.78
2018-04-16T12:33:49.112Z,19.93
2018-04-16T12:36:17.156Z,21.91
2018-04-16T12:38:45.195Z,23.33
2018-04-16T12:41:13.204Z,24.04
2018-04-16T12:43:41.309Z,28.39
2018-04-16T12:46:09.382Z,24.80
2018-04-16T12:48:37.399Z,22.28
2018-04-16T12:51:05.388Z,27.82
2018-04-16T12:53:33.357Z,29.24
2018-04-16T12:56:01.415Z,30.93
2018-04-16T12:58:29.432Z,31.74
2018-04-16T13:00:57.503Z,32.47
2018-04-16T13:03:25.538Z,33.91
2018-04-16T13:05:53.555Z,35.42
2018-04-16T13:08:21.630Z,35.23
2018-04-16T13:10:49.616Z,36.87
2018-04-16T13:13:17.631Z,33.99
2018-04-16T13:15:45.616Z,35.04
2018-04-16T13:18:13.629Z,37.17
2018-04-16T13:20:41.679Z,38.58
2018-04-16T13:23:10.118Z,38.19
2018-04-16T13:25:38.203Z,40.17
2018-04-16T13:28:06.262Z,38.53
2018-04-16T13:30:34.284Z,38.54
2018-04-16T13:33:02.899Z,38.34
2018-04-16T13:35:30.935Z,39.62
2018-04-16T13:37:59.018Z,40.32
2018-04-16T14:27:08.462Z,41.91
2018-04-16T14:29:36.508Z,41.53
2018-04-16T14:32:05.413Z,42.44
2018-04-16T14:34:33.415Z,43.66
2018-04-16T14:37:01.438Z,43.43
2018-04-16T14:39:29.398Z,42.53
2018-04-16T14:41:57.381Z,44.13
2018-04-16T14:44:25.394Z,43.42
2018-04-16T14:46:53.456Z,42.31
2018-04-16T14:49:21.469Z,44.05
2018-04-16T14:51:49.480Z,39.41
2018-04-16T14:54:17.431Z,38.93
2018-04-16T14:56:45.424Z,39.69
2018-04-16T14:59:13.568Z,41.34
2018-04-16T15:01:41.581Z,43.55
2018-04-16T15:04:09.614Z,41.95
2018-04-16T15:06:37.664Z,40.51
2018-04-16T15:09:07.583Z,43.66
2018-04-16T15:11:35.594Z,38.50
2018-04-16T15:14:03.677Z,38.25
2018-04-16T15:16:31.724Z,38.98
2018-04-16T15:18:59.718Z,40.02
2018-04-16T15:21:27.721Z,40.28
2018-04-16T15:23:55.731Z,39.15
2018-04-16T15:26:23.877Z,41.26
2018-04-16T15:28:52.340Z,46.31
2018-04-16T15:31:20.378Z,40.55
2018-04-16T15:33:48.374Z,41.72
2018-04-16T15:36:16.296Z,40.91
2018-04-16T15:38:44.338Z,40.89
2018-04-16T15:41:12.304Z,42.01
2018-04-16T15:43:41.126Z,43.11
2018-04-16T15:46:09.151Z,42.96
2018-04-16T15:48:37.681Z,43.76
2018-04-16T15:51:06.254Z,42.33
2018-04-16T15:53:34.692Z,42.34
2018-04-16T15:56:03.220Z,42.21
2018-04-16T15:58:31.436Z,43.32
2018-04-16T16:00:59.541Z,40.27
2018-04-16T16:03:27.655Z,41.43
2018-04-16T16:05:55.715Z,43.02
2018-04-16T16:08:23.715Z,43.83
2018-04-16T16:10:51.790Z,46.45
2018-04-16T16:13:19.757Z,45.16
2018-04-16T16:15:47.822Z,45.05
2018-04-16T16:18:15.854Z,46.77
2018-04-16T16:20:43.861Z,45.54
2018-04-16T16:23:12.150Z,44.43
2018-04-16T16:25:40.150Z,46.39
2018-04-16T16:28:08.134Z,43.51
2018-04-16T16:30:36.681Z,46.41
2018-04-16T16:33:04.753Z,45.26
2018-04-16T16:35:32.751Z,46.19
2018-04-16T16:38:00.750Z,49.13
2018-04-16T16:40:28.802Z,45.03
2018-04-16T16:42:56.850Z,45.34
2018-04-16T16:45:24.936Z,46.54
2018-04-16T16:47:53.022Z,45.65
2018-04-16T16:50:21.039Z,46.28
2018-04-16T16:52:49.043Z,48.14
2018-04-16T16:55:17.140Z,49.05
2018-04-16T16:57:45.191Z,47.63
2018-04-16T17:00:13.229Z,45.57
2018-04-16T17:02:41.293Z,44.85
2018-04-16T17:05:09.314Z,47.69
2018-04-16T17:07:37.400Z,46.07
2018-04-16T17:10:05.461Z,45.60
2018-04-16T17:12:33.882Z,44.93
2018-04-16T17:15:01.926Z,44.61
2018-04-16T17:17:29.995Z,45.33
2018-04-16T17:19:57.972Z,48.43
2018-04-16T17:22:25.953Z,44.91
2018-04-16T17:24:53.984Z,47.34
2018-04-16T17:27:21.998Z,47.23
2018-04-16T17:29:49.986Z,48.76
2018-04-16T17:32:18.397Z,48.57
2018-04-16T17:34:46.448Z,48.25
2018-04-16T17:37:14.470Z,48.33
2018-04-16T17:39:42.464Z,47.39
2018-04-16T17:42:10.449Z,48.08
2018-04-16T17:44:38.410Z,49.54
2018-04-16T17:47:06.457Z,48.90
2018-04-16T17:49:34.963Z,49.42
2018-04-16T17:52:02.959Z,52.55
2018-04-16T17:54:30.981Z,49.66
2018-04-16T17:56:58.966Z,47.87
2018-04-16T17:59:27.024Z,49.25
2018-04-16T18:01:55.074Z,50.56
2018-04-16T18:04:23.095Z,50.53
2018-04-16T18:06:51.194Z,48.86
2018-04-16T18:09:19.229Z,50.30
2018-04-16T18:11:47.239Z,50.07
2018-04-16T18:14:15.400Z,49.39
2018-04-16T18:16:43.401Z,49.77
2018-04-16T18:19:11.448Z,49.51
2018-04-16T18:21:39.505Z,50.73
2018-04-16T18:24:07.573Z,50.00
2018-04-16T18:26:35.606Z,49.14
2018-04-16T18:29:03.658Z,50.54
2018-04-16T18:31:31.673Z,48.24
2018-04-16T18:34:00.011Z,50.21
2018-04-16T18:36:28.081Z,50.68
2018-04-16T18:38:56.163Z,49.31
2018-04-16T18:41:24.201Z,50.41
2018-04-16T18:43:52.217Z,53.65
2018-04-16T18:46:20.249Z,52.08
2018-04-16T18:48:48.208Z,50.84
2018-04-16T18:51:16.295Z,50.93
2018-04-16T18:53:44.297Z,49.81
2018-04-16T18:56:12.287Z,50.43
2018-04-16T18:58:40.348Z,50.65
2018-04-16T19:01:08.447Z,50.52
2018-04-16T19:03:36.479Z,50.45
2018-04-16T19:06:04.693Z,50.36
2018-04-16T19:08:32.736Z,51.56
2018-04-16T19:11:00.746Z,50.93
2018-04-16T19:13:28.732Z,51.37
2018-04-16T19:15:56.966Z,50.30
2018-04-16T19:18:24.945Z,50.28
2018-04-16T19:20:58.650Z,52.36
2018-04-16T19:23:26.782Z,49.58
2018-04-16T19:25:54.818Z,50.47
2018-04-16T19:28:22.785Z,50.18
2018-04-16T19:30:50.872Z,50.04
2018-04-16T19:33:24.433Z,49.93
2018-04-16T19:35:53.060Z,50.12
2018-04-16T19:38:21.042Z,50.21
2018-04-16T19:40:49.061Z,50.15
2018-04-16T19:43:17.066Z,49.75
2018-04-16T19:45:45.165Z,49.61
2018-04-16T19:48:13.206Z,49.97
2018-04-16T19:50:41.301Z,50.15
2018-04-16T19:53:09.338Z,49.11
2018-04-16T19:55:43.024Z,49.83
2018-04-16T19:58:16.717Z,50.06
2018-04-16T20:00:44.766Z,48.08
2018-04-16T20:03:18.395Z,48.73
2018-04-16T20:05:46.603Z,48.65
2018-04-16T20:08:14.772Z,48.60
2018-04-16T20:10:42.827Z,47.94
2018-04-16T20:13:10.864Z,47.73
2018-04-16T20:15:38.867Z,47.93
2018-04-16T20:18:06.827Z,48.32
2018-04-16T20:20:34.849Z,48.52
2018-04-16T20:23:02.901Z,48.88
2018-04-16T20:25:30.873Z,48.74
2018-04-16T20:27:58.886Z,48.27
2018-04-16T20:30:26.878Z,49.82
2018-04-16T20:32:54.885Z,48.73
2018-04-16T20:35:22.911Z,48.22
2018-04-16T20:37:51.188Z,47.99
2018-04-16T20:40:19.162Z,48.80
2018-04-16T20:42:47.227Z,49.53
2018-04-16T20:45:15.222Z,49.50
2018-04-16T20:47:43.279Z,49.19
2018-04-16T20:50:11.341Z,50.32
2018-04-16T20:52:39.442Z,49.76
2018-04-16T20:55:07.528Z,50.39
2018-04-16T20:57:35.549Z,51.49
2018-04-16T21:00:03.713Z,50.39
2018-04-16T21:02:31.710Z,49.83
2018-04-16T21:04:59.730Z,50.02
2018-04-16T21:07:27.777Z,48.52
2018-04-16T21:09:55.824Z,48.21
2018-04-16T21:12:23.838Z,48.29
2018-04-16T21:14:51.846Z,48.46
2018-04-16T21:17:19.878Z,47.76
2018-04-16T21:19:47.896Z,48.27
2018-04-16T21:22:15.896Z,48.17
2018-04-16T21:24:43.877Z,47.62
2018-04-16T21:27:11.929Z,47.94
2018-04-16T21:29:39.992Z,46.70
2018-04-16T21:32:07.998Z,47.50
2018-04-16T21:34:36.047Z,48.25
2018-04-16T21:37:04.061Z,48.28
2018-04-16T21:39:32.604Z,47.69
2018-04-16T21:42:00.608Z,48.64
2018-04-16T21:44:28.602Z,48.20
2018-04-16T21:46:56.646Z,49.03
2018-04-16T21:49:24.636Z,51.65
2018-04-16T21:51:52.680Z,52.26
2018-04-16T21:54:20.673Z,53.60
2018-04-16T21:56:48.764Z,55.66
2018-04-16T21:59:16.768Z,57.54
2018-04-16T22:01:44.732Z,59.51
2018-04-16T22:04:12.749Z,58.50
2018-04-16T22:06:40.732Z,55.56
2018-04-16T22:09:08.784Z,55.06
2018-04-16T22:11:36.788Z,55.35
2018-04-16T22:14:04.844Z,55.74
2018-04-16T22:16:32.935Z,55.98
2018-04-16T22:19:00.954Z,56.42
2018-04-16T22:21:28.993Z,57.75
2018-04-16T22:23:56.982Z,56.55
2018-04-16T22:26:25.006Z,56.86
2018-04-16T22:28:53.118Z,58.62
2018-04-16T22:31:21.153Z,59.65
2018-04-16T22:33:49.219Z,63.33
2018-04-16T22:36:17.269Z,63.62
2018-04-16T22:38:45.307Z,62.71
2018-04-16T22:41:13.650Z,62.83
2018-04-16T22:43:41.651Z,61.59
2018-04-16T22:46:09.695Z,64.32
2018-04-16T22:48:37.723Z,62.95
2018-04-16T22:51:05.722Z,65.80
2018-04-16T22:53:33.731Z,64.13
2018-04-16T22:56:01.828Z,62.24
2018-04-16T22:58:29.879Z,60.40
2018-04-16T23:00:57.857Z,62.78
2018-04-16T23:03:25.840Z,62.89
2018-04-16T23:05:53.860Z,63.40
2018-04-16T23:08:21.872Z,63.23
2018-04-16T23:10:49.906Z,60.83
2018-04-16T23:13:17.874Z,60.78
2018-04-16T23:15:45.864Z,59.67
2018-04-16T23:18:13.893Z,62.25
2018-04-16T23:20:41.939Z,60.89
2018-04-16T23:23:09.906Z,61.97
2018-04-16T23:25:37.883Z,60.63
2018-04-16T23:28:05.927Z,60.09
2018-04-16T23:30:33.909Z,60.31
2018-04-16T23:33:01.955Z,59.74
2018-04-16T23:35:29.965Z,60.44
2018-04-16T23:37:58.037Z,61.87
2018-04-16T23:40:26.030Z,60.88
2018-04-16T23:42:54.405Z,60.80
2018-04-16T23:45:22.429Z,60.57
2018-04-16T23:47:50.387Z,60.64
2018-04-16T23:50:18.378Z,60.65
2018-04-16T23:52:46.397Z,60.96
2018-04-16T23:55:14.340Z,61.02
2018-04-16T23:57:42.355Z,64.86
